Time;durP1;ratioP1;P1;durP2;ratioP2;P2;SDS_P1;SDS_P2;PMS_P1;PMS_P2;Temp;Humidity;BMP_temperature;BMP_pressure;BME280_temperature;BME280_humidity;BME280_pressure;Samples;Min_cycle;Max_cycle;Signal;HPM_P1;HPM_P2
2022/11/17 00:00:26;;;;;;;22.65;14.02;;;8.20;99.90;;;;;;5114571;28;20031;-61
2022/11/17 00:02:51;;;;;;;27.27;15.02;;;8.20;99.90;;;;;;5114830;28;20422;-62
2022/11/17 00:05:17;;;;;;;22.92;13.90;;;8.20;99.90;;;;;;5114252;28;20149;-62
2022/11/17 00:07:44;;;;;;;23.10;13.82;;;8.20;99.90;;;;;;5114173;28;20139;-61
2022/11/17 00:10:10;;;;;;;19.90;13.50;;;8.10;99.90;;;;;;5114249;28;20505;-61
2022/11/17 00:15:20;;;;;;;20.23;14.00;;;8.20;99.90;;;;;;5114289;28;20047;-62
2022/11/17 00:21:17;;;;;;;20.55;13.75;;;8.20;99.90;;;;;;5114196;28;20176;-62
2022/11/17 00:23:21;;;;;;;20.67;14.05;;;8.20;99.90;;;;;;5114454;28;20049;-61
2022/11/17 00:25:47;;;;;;;18.00;13.70;;;8.20;99.90;;;;;;5114526;28;20039;-62
2022/11/17 00:28:13;;;;;;;16.08;13.00;;;8.20;99.90;;;;;;5114116;28;20469;-62
2022/11/17 00:36:07;;;;;;;19.17;13.80;;;8.20;99.90;;;;;;5113501;28;20047;-62
2022/11/17 00:38:32;;;;;;;22.20;12.32;;;8.20;99.90;;;;;;5113756;28;20043;-62
2022/11/17 00:40:58;;;;;;;16.98;13.00;;;8.20;99.90;;;;;;5113581;28;20441;-61
2022/11/17 00:43:23;;;;;;;19.67;12.07;;;8.20;99.90;;;;;;5113640;28;20122;-62
2022/11/17 00:45:49;;;;;;;20.20;13.05;;;8.20;99.90;;;;;;5113863;28;20040;-62
2022/11/17 00:48:15;;;;;;;16.70;12.45;;;8.20;99.90;;;;;;5113651;28;20388;-61
2022/11/17 00:50:41;;;;;;;17.90;12.57;;;8.20;99.90;;;;;;5113682;28;20043;-61
2022/11/17 00:53:07;;;;;;;15.52;11.38;;;8.20;99.90;;;;;;5113733;28;20397;-61
2022/11/17 00:55:32;;;;;;;14.80;11.50;;;8.20;99.90;;;;;;5113349;28;20039;-61
2022/11/17 00:57:58;;;;;;;13.88;11.73;;;8.20;99.90;;;;;;5113388;28;20104;-61
2022/11/17 01:00:24;;;;;;;13.77;11.35;;;8.20;99.90;;;;;;5113232;28;20393;-61
2022/11/17 01:02:49;;;;;;;13.65;11.02;;;8.20;99.90;;;;;;5113398;28;20031;-62
2022/11/17 01:05:15;;;;;;;14.45;11.57;;;8.20;99.90;;;;;;5113399;28;20085;-62
2022/11/17 01:07:41;;;;;;;16.05;11.40;;;8.20;99.90;;;;;;5113044;28;20051;-60
2022/11/17 01:10:07;;;;;;;18.80;11.82;;;8.20;99.90;;;;;;5113132;28;20070;-62
2022/11/17 01:12:32;;;;;;;12.70;11.00;;;8.20;99.90;;;;;;5112927;28;20066;-61
2022/11/17 01:14:58;;;;;;;12.25;10.68;;;8.20;99.90;;;;;;5113103;28;20477;-61
2022/11/17 01:17:24;;;;;;;15.82;11.48;;;8.20;99.90;;;;;;5113003;28;20039;-61
2022/11/17 01:19:49;;;;;;;14.13;11.48;;;8.20;99.90;;;;;;5113088;28;20371;-61
2022/11/17 01:22:16;;;;;;;15.25;11.35;;;8.10;99.90;;;;;;5113140;28;20089;-61
2022/11/17 01:24:42;;;;;;;14.35;11.25;;;8.20;99.90;;;;;;5112843;28;20039;-62
2022/11/17 01:27:07;;;;;;;15.45;11.48;;;8.10;99.90;;;;;;5112775;28;20374;-61
2022/11/17 01:29:33;;;;;;;13.05;11.23;;;8.10;99.90;;;;;;5113012;28;20040;-61
2022/11/17 01:31:59;;;;;;;14.95;12.38;;;8.10;99.90;;;;;;5113106;28;20097;-62
2022/11/17 01:34:24;;;;;;;14.38;11.38;;;8.10;99.90;;;;;;5113166;28;20395;-62
2022/11/17 01:39:34;;;;;;;16.50;12.45;;;8.10;99.90;;;;;;5112480;28;20374;-62
2022/11/17 01:42:09;;;;;;;14.88;11.23;;;8.00;99.90;;;;;;5112862;28;20053;-61
2022/11/17 01:44:46;;;;;;;20.98;11.88;;;8.10;99.90;;;;;;5112711;28;20051;-61
2022/11/17 01:47:18;;;;;;;21.50;10.63;;;8.00;99.90;;;;;;5112645;28;20118;-61
2022/11/17 01:49:45;;;;;;;15.45;12.18;;;8.00;99.90;;;;;;5112427;28;20044;-61
2022/11/17 01:52:12;;;;;;;13.13;11.50;;;8.00;99.90;;;;;;5112303;28;20069;-61
2022/11/17 01:54:42;;;;;;;14.75;11.52;;;8.00;99.90;;;;;;5112430;28;20047;-61
2022/11/17 01:57:18;;;;;;;14.00;11.43;;;8.00;99.90;;;;;;5112787;28;20035;-62
2022/11/17 01:59:49;;;;;;;14.93;11.93;;;7.90;99.90;;;;;;5112304;28;20036;-61
2022/11/17 02:02:15;;;;;;;13.90;11.63;;;7.90;99.90;;;;;;5111732;28;20043;-61
2022/11/17 02:04:48;;;;;;;18.00;11.77;;;7.90;99.90;;;;;;5093609;28;20134;-61
2022/11/17 02:07:28;;;;;;;14.75;11.85;;;7.90;99.90;;;;;;5112459;28;20039;-61
2022/11/17 02:09:55;;;;;;;15.15;11.90;;;7.90;99.90;;;;;;5112418;28;20059;-61
2022/11/17 02:12:24;;;;;;;16.27;11.45;;;7.90;99.90;;;;;;5112313;28;20040;-61
2022/11/17 02:14:51;;;;;;;14.75;11.23;;;7.90;99.90;;;;;;5112073;28;20127;-61
2022/11/17 02:17:18;;;;;;;18.30;11.80;;;7.90;99.90;;;;;;5112516;28;20039;-61
2022/11/17 02:20:02;;;;;;;14.02;10.80;;;7.90;99.90;;;;;;5112375;28;20047;-61
2022/11/17 02:22:36;;;;;;;21.40;12.13;;;7.90;99.90;;;;;;5112247;28;20481;-61
2022/11/17 02:25:34;;;;;;;13.43;10.65;;;7.90;99.90;;;;;;5112235;28;20043;-61
2022/11/17 02:28:12;;;;;;;14.93;11.63;;;7.90;99.90;;;;;;5009765;28;20100;-61
2022/11/17 02:31:12;;;;;;;17.10;12.73;;;7.90;99.90;;;;;;5009699;28;20108;-62
2022/11/17 02:34:18;;;;;;;19.27;13.45;;;8.00;99.90;;;;;;5007667;28;20057;-62
2022/11/17 02:36:56;;;;;;;19.25;14.00;;;7.90;99.90;;;;;;5009800;28;20469;-62
2022/11/17 02:39:39;;;;;;;19.00;14.20;;;7.90;99.90;;;;;;5009805;28;20049;-62
2022/11/17 02:44:02;;;;;;;16.85;13.88;;;7.90;99.90;;;;;;5009614;28;20480;-61
2022/11/17 02:45:14;;;;;;;18.10;13.18;;;7.90;99.90;;;;;;5009663;28;20082;-62
2022/11/17 02:47:43;;;;;;;20.60;14.90;;;7.80;99.90;;;;;;5009677;28;20050;-61
2022/11/17 02:50:10;;;;;;;20.10;15.70;;;7.80;99.90;;;;;;5009451;28;20097;-61
2022/11/17 02:52:36;;;;;;;23.92;16.95;;;7.80;99.90;;;;;;5009451;28;20073;-61
2022/11/17 02:55:04;;;;;;;24.25;18.48;;;7.80;99.90;;;;;;5009516;28;20512;-61
2022/11/17 02:57:38;;;;;;;24.70;19.57;;;7.80;99.90;;;;;;5009857;28;20048;-60
2022/11/17 03:00:04;;;;;;;24.27;17.55;;;7.80;99.90;;;;;;5009570;28;20042;-61
2022/11/17 03:02:59;;;;;;;23.83;18.88;;;7.70;99.90;;;;;;5013546;28;20034;-61
2022/11/17 03:05:42;;;;;;;25.10;19.10;;;7.70;99.90;;;;;;5112133;28;20597;-62
2022/11/17 03:08:17;;;;;;;25.20;19.70;;;7.80;99.90;;;;;;5111595;28;20051;-62
2022/11/17 03:10:54;;;;;;;22.55;18.95;;;7.60;99.90;;;;;;5111627;28;20093;-61
2022/11/17 03:13:32;;;;;;;25.35;20.75;;;7.70;99.90;;;;;;5112483;28;20111;-62
2022/11/17 03:16:03;;;;;;;26.05;20.02;;;7.60;99.90;;;;;;5115448;28;20051;-61
2022/11/17 03:18:52;;;;;;;26.77;20.17;;;7.70;99.90;;;;;;5115269;28;20035;-62
2022/11/17 03:21:52;;;;;;;31.17;21.40;;;7.60;99.90;;;;;;5012670;28;20053;-62
2022/11/17 03:24:34;;;;;;;24.50;19.50;;;7.60;99.90;;;;;;4973843;28;20102;-61
2022/11/17 03:27:14;;;;;;;21.98;19.60;;;7.70;99.90;;;;;;4973604;28;20051;-62
2022/11/17 03:29:45;;;;;;;27.25;20.00;;;7.60;99.90;;;;;;4973561;28;20047;-62
2022/11/17 03:32:13;;;;;;;24.85;20.20;;;7.50;99.90;;;;;;4973315;28;20050;-62
2022/11/17 03:34:44;;;;;;;26.55;21.58;;;7.60;99.90;;;;;;4973315;28;20058;-62
2022/11/17 03:37:13;;;;;;;26.58;20.95;;;7.60;99.90;;;;;;4973449;28;20038;-62
2022/11/17 03:39:51;;;;;;;25.35;19.80;;;7.60;99.90;;;;;;4973427;28;20085;-62
2022/11/17 03:42:22;;;;;;;23.23;18.05;;;7.60;99.90;;;;;;4957019;28;20063;-62
2022/11/17 03:44:52;;;;;;;20.60;18.40;;;7.50;99.90;;;;;;4973308;28;20167;-62
2022/11/17 03:47:22;;;;;;;20.48;16.98;;;7.50;99.90;;;;;;4973144;28;20086;-63
2022/11/17 03:50:10;;;;;;;19.67;16.13;;;7.50;99.90;;;;;;4973225;28;20054;-63
2022/11/17 03:52:36;;;;;;;17.25;14.88;;;7.50;99.90;;;;;;4973017;28;20057;-63
2022/11/17 03:55:03;;;;;;;16.40;14.20;;;7.60;99.90;;;;;;4972930;28;20537;-63
2022/11/17 03:57:35;;;;;;;18.13;13.65;;;7.50;99.90;;;;;;4989655;28;20491;-63
2022/11/17 04:00:06;;;;;;;19.73;15.00;;;7.40;99.90;;;;;;5083169;28;20136;-64
2022/11/17 04:02:32;;;;;;;17.98;14.25;;;7.40;99.90;;;;;;5096312;28;20035;-63
2022/11/17 04:05:07;;;;;;;18.48;13.32;;;7.40;99.90;;;;;;5114507;28;20040;-64
2022/11/17 04:07:42;;;;;;;17.15;13.70;;;7.50;99.90;;;;;;5114444;28;20506;-63
2022/11/17 04:10:13;;;;;;;17.00;13.75;;;7.40;99.90;;;;;;5114467;28;20145;-63
2022/11/17 04:18:07;;;;;;;17.10;13.43;;;7.30;99.90;;;;;;5114498;28;20081;-63
2022/11/17 04:20:36;;;;;;;16.77;13.63;;;7.20;99.90;;;;;;5114425;28;20481;-63
2022/11/17 04:23:06;;;;;;;14.82;12.73;;;7.20;99.90;;;;;;5114261;28;20043;-63
2022/11/17 04:28:35;;;;;;;17.70;12.73;;;7.20;99.90;;;;;;5113939;28;20040;-63
2022/11/17 04:31:06;;;;;;;16.23;12.73;;;7.30;99.90;;;;;;5113917;28;20606;-63
2022/11/17 04:33:33;;;;;;;15.20;12.98;;;7.30;99.90;;;;;;5113978;28;20131;-62
2022/11/17 04:35:58;;;;;;;14.48;12.98;;;7.30;99.90;;;;;;5113791;28;20039;-63
2022/11/17 04:38:24;;;;;;;18.02;13.23;;;7.30;99.90;;;;;;5114159;28;20040;-63
2022/11/17 04:43:41;;;;;;;14.73;12.98;;;7.10;99.90;;;;;;5089674;28;20039;-63
2022/11/17 04:46:07;;;;;;;16.65;13.60;;;7.20;99.90;;;;;;5113721;28;20497;-64
2022/11/17 04:48:32;;;;;;;16.35;13.43;;;7.10;99.90;;;;;;5113669;28;20032;-63
2022/11/17 04:50:58;;;;;;;17.27;12.80;;;7.20;99.90;;;;;;5113519;28;20490;-64
2022/11/17 04:53:24;;;;;;;15.25;12.38;;;7.10;99.90;;;;;;5113397;28;20038;-63
2022/11/17 04:55:49;;;;;;;15.52;12.77;;;7.20;99.90;;;;;;5113639;28;20048;-63
2022/11/17 04:58:15;;;;;;;14.07;12.23;;;7.00;99.90;;;;;;5113633;28;20054;-62
2022/11/17 05:00:41;;;;;;;16.13;13.38;;;7.20;99.90;;;;;;5113752;28;20089;-63
2022/11/17 05:03:07;;;;;;;15.25;12.55;;;7.00;99.90;;;;;;5113854;28;20473;-64
2022/11/17 05:05:33;;;;;;;15.95;13.00;;;7.10;99.90;;;;;;5113380;28;20439;-63
2022/11/17 05:07:58;;;;;;;14.90;13.07;;;7.10;99.90;;;;;;5113517;28;20093;-63
2022/11/17 05:13:20;;;;;;;13.07;11.63;;;7.10;99.90;;;;;;5113465;28;20043;-63
2022/11/17 05:13:25;;;;;;;16.05;12.18;;;7.00;99.90;;;;;;5113345;28;20050;-62
2022/11/17 05:18:37;;;;;;;16.48;12.27;;;7.00;99.90;;;;;;5113209;28;20040;-63
2022/11/17 05:21:07;;;;;;;13.80;11.50;;;7.00;99.90;;;;;;5113248;28;20489;-64
2022/11/17 05:26:18;;;;;;;13.02;11.70;;;6.90;99.90;;;;;;5113035;28;20052;-63
2022/11/17 05:28:43;;;;;;;14.13;12.15;;;7.00;99.90;;;;;;5112955;28;20119;-63
2022/11/17 05:31:09;;;;;;;12.80;11.50;;;6.90;99.90;;;;;;5113162;28;20122;-62
2022/11/17 05:33:35;;;;;;;13.07;11.65;;;6.90;99.90;;;;;;5112783;28;20035;-63
2022/11/17 05:36:01;;;;;;;14.57;11.27;;;6.90;99.90;;;;;;5112117;28;20032;-63
2022/11/17 05:38:26;;;;;;;12.68;11.10;;;6.90;99.90;;;;;;5112899;28;20434;-62
2022/11/17 05:40:52;;;;;;;11.73;10.07;;;6.80;99.90;;;;;;5112227;28;20058;-64
2022/11/17 05:43:18;;;;;;;13.70;10.40;;;6.80;99.90;;;;;;5110792;28;20393;-63
2022/11/17 05:45:47;;;;;;;12.93;10.75;;;6.80;99.90;;;;;;5112813;28;20047;-62
2022/11/17 05:48:12;;;;;;;;;;;6.80;99.90;;;;;;5113506;28;20039;-62
2022/11/17 05:50:38;;;;;;;11.77;10.32;;;6.80;99.90;;;;;;5112628;28;20369;-62
2022/11/17 05:53:04;;;;;;;11.55;10.35;;;6.70;99.90;;;;;;5112843;28;20055;-62
2022/11/17 05:55:30;;;;;;;12.93;10.63;;;6.80;99.90;;;;;;5112663;28;20036;-63
2022/11/17 05:58:00;;;;;;;11.55;9.90;;;6.80;99.90;;;;;;5112607;28;20462;-63
2022/11/17 06:00:26;;;;;;;12.70;9.70;;;6.70;99.90;;;;;;5112791;28;20401;-62
2022/11/17 06:02:58;;;;;;;11.93;9.93;;;6.70;99.90;;;;;;5112896;28;20557;-63
2022/11/17 06:05:24;;;;;;;11.18;9.95;;;6.70;99.90;;;;;;5112537;28;20118;-63
2022/11/17 06:08:01;;;;;;;10.82;9.73;;;6.80;99.90;;;;;;5112138;28;20056;-63
2022/11/17 06:10:27;;;;;;;10.43;9.32;;;6.70;99.90;;;;;;5112466;28;20116;-63
2022/11/17 06:12:52;;;;;;;11.13;9.57;;;6.70;99.90;;;;;;5112580;28;20392;-63
2022/11/17 06:15:18;;;;;;;10.35;9.25;;;6.80;99.90;;;;;;5112191;28;20056;-63
2022/11/17 06:17:53;;;;;;;11.43;9.13;;;6.80;99.90;;;;;;5112459;28;20031;-63
2022/11/17 06:20:27;;;;;;;10.02;9.02;;;6.80;99.90;;;;;;5112443;28;20089;-63
2022/11/17 06:22:56;;;;;;;9.85;8.05;;;6.80;99.90;;;;;;5112088;28;20488;-63
2022/11/17 06:25:22;;;;;;;9.40;8.50;;;6.70;99.90;;;;;;5112306;28;20048;-63
2022/11/17 06:27:49;;;;;;;9.45;8.43;;;6.80;99.90;;;;;;5112415;28;20393;-62
2022/11/17 06:30:15;;;;;;;10.18;8.70;;;6.70;99.90;;;;;;5112340;28;20036;-63
2022/11/17 06:32:42;;;;;;;9.20;7.65;;;6.70;99.90;;;;;;5112161;28;20084;-63
2022/11/17 06:35:10;;;;;;;10.48;8.15;;;6.70;99.90;;;;;;5094034;28;20110;-62
2022/11/17 06:37:35;;;;;;;8.45;7.55;;;6.70;99.90;;;;;;5112091;28;20082;-63
2022/11/17 06:40:01;;;;;;;8.82;7.95;;;6.70;99.90;;;;;;5112357;28;20067;-64
2022/11/17 06:45:11;;;;;;;9.13;7.82;;;6.60;99.90;;;;;;5112377;28;20071;-63
2022/11/17 06:47:37;;;;;;;9.10;8.15;;;6.70;99.90;;;;;;5113849;28;20040;-63
2022/11/17 06:50:03;;;;;;;8.30;7.28;;;6.70;99.90;;;;;;5116039;28;20089;-63
2022/11/17 06:52:29;;;;;;;8.07;7.28;;;6.70;99.90;;;;;;5098089;28;20067;-62
2022/11/17 06:54:54;;;;;;;9.27;7.50;;;6.60;99.90;;;;;;5116137;28;20079;-62
2022/11/17 06:57:20;;;;;;;8.63;7.53;;;6.60;99.90;;;;;;5115899;28;20446;-63
2022/11/17 06:59:46;;;;;;;8.07;6.78;;;6.70;99.90;;;;;;5115854;28;20040;-62
2022/11/17 07:02:11;;;;;;;9.05;7.38;;;6.70;99.90;;;;;;5115859;28;20032;-63
2022/11/17 07:04:37;;;;;;;9.02;7.38;;;6.70;99.90;;;;;;5115673;28;20044;-64
2022/11/17 07:07:02;;;;;;;9.70;7.43;;;6.70;99.90;;;;;;5115612;28;20044;-62
2022/11/17 07:09:28;;;;;;;9.52;7.40;;;6.60;99.90;;;;;;5115477;28;20054;-63
2022/11/17 07:11:54;;;;;;;8.43;7.22;;;6.70;99.90;;;;;;5115720;28;20393;-64
2022/11/17 07:14:19;;;;;;;8.18;6.85;;;6.60;99.90;;;;;;5115560;28;20032;-64
2022/11/17 07:16:45;;;;;;;8.85;7.45;;;6.70;99.90;;;;;;5115584;28;20118;-64
2022/11/17 07:19:11;;;;;;;8.88;7.22;;;6.70;99.90;;;;;;5115579;28;20039;-63
2022/11/17 07:21:37;;;;;;;9.02;7.30;;;6.70;99.90;;;;;;5115799;28;20429;-63
2022/11/17 07:24:03;;;;;;;8.63;7.30;;;6.60;99.90;;;;;;5115580;28;20212;-63
2022/11/17 07:26:29;;;;;;;8.30;6.88;;;6.70;99.90;;;;;;5115682;28;20036;-64
2022/11/17 07:28:54;;;;;;;8.40;7.15;;;6.70;99.90;;;;;;5115515;28;20036;-63
2022/11/17 07:31:20;;;;;;;8.27;7.15;;;6.70;99.90;;;;;;5115180;28;20035;-63
2022/11/17 07:33:46;;;;;;;9.85;7.43;;;6.60;99.90;;;;;;5115228;28;20118;-62
2022/11/17 07:36:13;;;;;;;8.85;7.63;;;6.70;99.90;;;;;;5115406;28;20035;-63
2022/11/17 07:38:40;;;;;;;7.47;6.78;;;6.70;99.90;;;;;;5115198;28;20046;-63
2022/11/17 07:41:07;;;;;;;8.18;6.95;;;6.60;99.90;;;;;;5115282;28;20043;-62
2022/11/17 07:43:34;;;;;;;7.78;6.97;;;6.60;99.90;;;;;;5114915;28;20027;-63
2022/11/17 07:46:09;;;;;;;7.68;6.40;;;6.60;99.90;;;;;;5115357;28;20075;-62
2022/11/17 07:48:34;;;;;;;9.75;6.90;;;6.70;99.90;;;;;;5115265;28;20375;-63
2022/11/17 07:51:02;;;;;;;10.40;6.70;;;6.60;99.90;;;;;;5115488;28;20054;-63
2022/11/17 07:53:27;;;;;;;7.45;6.50;;;6.60;99.90;;;;;;5115599;28;20047;-63
2022/11/17 07:55:54;;;;;;;8.07;6.70;;;6.70;99.90;;;;;;5114942;28;20181;-63
2022/11/17 07:58:19;;;;;;;8.65;6.57;;;6.60;99.90;;;;;;5114877;28;20046;-63
2022/11/17 08:00:45;;;;;;;8.32;6.32;;;6.60;99.90;;;;;;5114033;28;20035;-63
2022/11/17 08:03:10;;;;;;;8.40;6.60;;;6.70;99.90;;;;;;5114761;28;20042;-62
2022/11/17 08:05:38;;;;;;;7.28;6.05;;;6.60;99.90;;;;;;5114530;28;20046;-62
2022/11/17 08:08:06;;;;;;;7.43;6.13;;;6.60;99.90;;;;;;5114569;28;20047;-63
2022/11/17 08:10:33;;;;;;;7.57;6.53;;;6.50;99.90;;;;;;5114865;28;20035;-62
2022/11/17 08:13:02;;;;;;;9.70;7.05;;;6.50;99.90;;;;;;5096461;28;20063;-63
2022/11/17 08:15:28;;;;;;;;;;;6.60;99.90;;;;;;5114807;28;20054;-63
2022/11/17 08:17:56;;;;;;;7.25;6.40;;;6.60;99.90;;;;;;5114727;28;19915;-63
2022/11/17 08:20:23;;;;;;;7.15;6.25;;;6.60;99.90;;;;;;5114386;28;20385;-63
2022/11/17 08:22:50;;;;;;;10.00;7.18;;;6.70;99.90;;;;;;5114522;28;20039;-64
2022/11/17 08:25:16;;;;;;;7.13;6.20;;;6.60;99.90;;;;;;5114323;28;20473;-64
2022/11/17 08:27:42;;;;;;;9.75;6.82;;;6.70;99.90;;;;;;5113975;28;20108;-63
2022/11/17 08:30:08;;;;;;;8.27;6.85;;;6.60;99.90;;;;;;5114323;28;20089;-63
2022/11/17 08:32:34;;;;;;;6.70;5.97;;;6.70;99.90;;;;;;5114447;28;20050;-63
2022/11/17 08:35:02;;;;;;;7.28;6.38;;;6.70;99.90;;;;;;5113797;28;20043;-63
2022/11/17 08:37:29;;;;;;;7.80;6.03;;;6.60;99.90;;;;;;5113869;28;20046;-63
2022/11/17 08:39:55;;;;;;;7.43;6.70;;;6.70;99.90;;;;;;5113954;28;20046;-62
2022/11/17 08:42:20;;;;;;;9.68;6.90;;;6.70;99.90;;;;;;5114201;28;20040;-63
2022/11/17 08:44:46;;;;;;;10.45;7.30;;;6.70;99.90;;;;;;5114098;28;20039;-63
2022/11/17 08:47:11;;;;;;;8.43;7.28;;;6.70;99.90;;;;;;5113818;28;20437;-62
2022/11/17 08:49:37;;;;;;;8.15;7.25;;;6.70;99.90;;;;;;5113935;28;20040;-62
2022/11/17 08:52:03;;;;;;;8.43;6.82;;;6.70;99.90;;;;;;5095428;28;20059;-63
2022/11/17 08:54:29;;;;;;;10.30;7.93;;;6.70;99.90;;;;;;5113983;28;20051;-62
2022/11/17 08:56:58;;;;;;;9.23;8.23;;;6.70;99.90;;;;;;5113755;28;20028;-62
2022/11/17 08:59:25;;;;;;;12.65;8.50;;;6.70;99.90;;;;;;5113595;28;20035;-63
2022/11/17 09:01:51;;;;;;;9.68;8.27;;;6.80;99.90;;;;;;5113173;28;20538;-63
2022/11/17 09:04:17;;;;;;;12.35;8.65;;;6.70;99.90;;;;;;5113790;28;20039;-62
2022/11/17 09:06:43;;;;;;;10.80;8.50;;;6.70;99.90;;;;;;5113838;28;20043;-62
2022/11/17 09:09:08;;;;;;;10.57;8.75;;;6.70;99.90;;;;;;5113247;28;20386;-62
2022/11/17 09:11:34;;;;;;;11.88;9.32;;;6.70;99.90;;;;;;5112328;28;20083;-62
2022/11/17 09:14:00;;;;;;;11.55;9.02;;;6.70;99.90;;;;;;5113568;28;20119;-62
2022/11/17 09:16:25;;;;;;;11.88;8.57;;;6.90;99.90;;;;;;5113873;28;20058;-62
2022/11/17 09:18:56;;;;;;;11.40;8.02;;;6.70;99.90;;;;;;5112545;28;20092;-63
2022/11/17 09:21:22;;;;;;;11.10;8.65;;;6.70;99.90;;;;;;5111447;28;20040;-62
2022/11/17 09:23:48;;;;;;;9.85;8.52;;;6.70;99.90;;;;;;5111792;28;20034;-63
2022/11/17 09:26:14;;;;;;;11.57;8.60;;;6.80;99.90;;;;;;5113673;28;20093;-63
2022/11/17 09:28:42;;;;;;;8.60;7.80;;;6.70;99.90;;;;;;5114033;28;20386;-63
2022/11/17 09:31:09;;;;;;;8.65;7.50;;;6.60;99.90;;;;;;5113572;28;20362;-64
2022/11/17 09:33:35;;;;;;;9.43;7.15;;;6.70;99.90;;;;;;5113538;28;20435;-64
2022/11/17 09:36:01;;;;;;;7.97;7.18;;;6.60;99.90;;;;;;5113050;28;20039;-63
2022/11/17 09:38:27;;;;;;;8.15;6.60;;;6.80;99.90;;;;;;5113712;28;20040;-63
2022/11/17 09:40:54;;;;;;;9.88;6.75;;;6.70;99.90;;;;;;5113339;28;20180;-62
2022/11/17 09:43:27;;;;;;;7.00;6.32;;;6.70;99.90;;;;;;5113436;28;20039;-63
2022/11/17 09:46:04;;;;;;;7.65;6.50;;;6.70;99.90;;;;;;5113129;28;20047;-63
2022/11/17 09:48:46;;;;;;;7.95;6.80;;;6.70;99.90;;;;;;5111998;28;20088;-63
2022/11/17 09:51:17;;;;;;;7.68;6.57;;;6.60;99.90;;;;;;5110726;28;20525;-64
2022/11/17 09:53:52;;;;;;;7.97;6.75;;;6.70;99.90;;;;;;5112888;28;20047;-63
2022/11/17 09:56:17;;;;;;;9.00;6.60;;;6.60;99.90;;;;;;5113181;28;20096;-62
2022/11/17 09:58:55;;;;;;;6.82;5.95;;;6.70;99.90;;;;;;5112767;28;20039;-63
2022/11/17 10:01:21;;;;;;;7.38;6.45;;;6.60;99.90;;;;;;5112920;28;20363;-62
2022/11/17 10:03:49;;;;;;;8.48;6.40;;;6.70;99.90;;;;;;5112915;28;20031;-63
2022/11/17 10:06:17;;;;;;;7.75;6.95;;;6.70;99.90;;;;;;5112814;28;20058;-63
2022/11/17 10:09:00;;;;;;;8.18;6.93;;;6.70;99.90;;;;;;5112345;28;20067;-63
2022/11/17 10:11:36;;;;;;;6.82;5.90;;;6.70;99.90;;;;;;5112888;28;20048;-63
2022/11/17 10:14:08;;;;;;;8.27;6.97;;;6.70;99.90;;;;;;5112307;28;20039;-63
2022/11/17 10:16:36;;;;;;;8.07;7.28;;;6.70;99.90;;;;;;5094376;28;20118;-63
2022/11/17 10:19:23;;;;;;;8.75;7.50;;;6.70;99.90;;;;;;5111294;28;20034;-63
2022/11/17 10:22:11;;;;;;;8.48;7.30;;;6.80;99.90;;;;;;5110930;28;20039;-63
2022/11/17 10:24:37;;;;;;;7.18;6.47;;;6.60;99.90;;;;;;5114903;28;20044;-62
2022/11/17 10:27:05;;;;;;;7.28;6.55;;;6.70;99.90;;;;;;5098660;28;20040;-63
2022/11/17 10:29:32;;;;;;;8.50;7.18;;;6.70;99.90;;;;;;5116860;28;20070;-63
2022/11/17 10:31:59;;;;;;;8.05;7.25;;;6.70;99.90;;;;;;5116550;28;20042;-63
2022/11/17 10:34:36;;;;;;;7.78;7.03;;;6.80;99.90;;;;;;5116391;28;20040;-63
2022/11/17 10:37:14;;;;;;;7.55;6.70;;;6.70;99.90;;;;;;5116139;28;20115;-63
2022/11/17 10:39:41;;;;;;;6.65;5.78;;;6.70;99.90;;;;;;5116442;28;20032;-63
2022/11/17 10:42:27;;;;;;;8.23;6.57;;;6.80;99.90;;;;;;5116241;28;20043;-63
2022/11/17 10:44:57;;;;;;;7.40;6.63;;;6.80;99.90;;;;;;5116357;28;20118;-63
2022/11/17 10:47:39;;;;;;;7.03;6.32;;;6.70;99.90;;;;;;5116324;28;20439;-62
2022/11/17 10:50:24;;;;;;;7.50;6.70;;;6.80;99.90;;;;;;5114921;28;20051;-64
2022/11/17 10:52:51;;;;;;;6.68;6.07;;;6.80;99.90;;;;;;5114368;28;20028;-64
2022/11/17 10:55:18;;;;;;;7.15;6.28;;;6.80;99.90;;;;;;5115856;28;20152;-63
2022/11/17 10:57:48;;;;;;;8.90;6.43;;;6.70;99.90;;;;;;5116278;28;20038;-63
2022/11/17 11:00:35;;;;;;;6.68;5.88;;;6.70;99.90;;;;;;5115861;28;20075;-64
2022/11/17 11:03:22;;;;;;;6.70;6.10;;;6.70;99.90;;;;;;5116223;28;20381;-63
2022/11/17 11:05:58;;;;;;;7.80;6.07;;;6.70;99.90;;;;;;5116260;28;20043;-63
2022/11/17 11:09:02;;;;;;;7.10;6.10;;;6.80;99.90;;;;;;5115540;28;20062;-63
2022/11/17 11:11:47;;;;;;;7.45;6.00;;;6.70;99.90;;;;;;5115417;28;20047;-63
2022/11/17 11:14:16;;;;;;;6.72;6.03;;;6.80;99.90;;;;;;5114829;28;20135;-64
2022/11/17 11:16:46;;;;;;;6.20;5.60;;;6.80;99.90;;;;;;5115950;28;20092;-63
2022/11/17 11:19:15;;;;;;;7.50;6.45;;;6.70;99.90;;;;;;5114648;28;20036;-64
2022/11/17 11:22:02;;;;;;;7.60;6.80;;;6.70;99.90;;;;;;5113632;28;20043;-64
2022/11/17 11:24:41;;;;;;;8.38;6.95;;;6.70;99.90;;;;;;5114355;28;20440;-63
2022/11/17 11:27:06;;;;;;;8.30;6.85;;;6.70;99.90;;;;;;5116010;28;20101;-63
2022/11/17 11:29:38;;;;;;;8.00;6.68;;;6.60;99.90;;;;;;5096521;28;20047;-63
2022/11/17 11:32:13;;;;;;;7.45;6.65;;;6.70;99.90;;;;;;5115529;28;20043;-63
2022/11/17 11:35:02;;;;;;;8.40;6.25;;;6.80;99.90;;;;;;5114075;28;20389;-64
2022/11/17 11:37:45;;;;;;;11.30;7.60;;;6.70;99.90;;;;;;5115405;28;20457;-63
2022/11/17 11:40:25;;;;;;;7.55;6.75;;;6.70;99.90;;;;;;5115243;28;20040;-63
2022/11/17 11:43:32;;;;;;;9.18;7.47;;;6.80;99.90;;;;;;5115142;28;20040;-63
2022/11/17 11:45:57;;;;;;;9.43;7.68;;;6.80;99.90;;;;;;5012614;28;20117;-63
2022/11/17 11:48:25;;;;;;;9.43;7.90;;;6.60;99.90;;;;;;4995503;28;20479;-64
2022/11/17 11:50:57;;;;;;;8.77;7.93;;;6.70;99.90;;;;;;5012618;28;20384;-64
2022/11/17 11:53:37;;;;;;;9.73;8.45;;;6.80;99.90;;;;;;5012376;28;20643;-64
2022/11/17 11:56:26;;;;;;;9.52;8.52;;;6.80;99.90;;;;;;5012376;28;20046;-62
2022/11/17 11:59:22;;;;;;;9.40;8.40;;;6.70;99.90;;;;;;5012330;28;20528;-62
2022/11/17 12:01:54;;;;;;;11.20;8.30;;;6.80;99.90;;;;;;5012210;28;20137;-63
2022/11/17 12:04:45;;;;;;;8.98;7.80;;;6.80;99.90;;;;;;5012218;28;20072;-63
2022/11/17 12:07:27;;;;;;;9.32;8.15;;;6.90;99.90;;;;;;5012132;28;20478;-64
2022/11/17 12:09:59;;;;;;;10.88;7.63;;;6.90;99.90;;;;;;5011998;28;20141;-63
2022/11/17 12:12:35;;;;;;;7.93;7.07;;;6.90;99.90;;;;;;5012024;28;20080;-64
2022/11/17 12:15:08;;;;;;;10.27;7.47;;;6.90;99.90;;;;;;5011843;28;20132;-64
2022/11/17 12:17:35;;;;;;;8.77;7.43;;;6.90;99.90;;;;;;5011947;28;20124;-64
2022/11/17 12:20:04;;;;;;;8.50;7.38;;;6.80;99.90;;;;;;5069618;28;20040;-65
2022/11/17 12:22:30;;;;;;;;;;;6.90;99.90;;;;;;5096390;28;20500;-64
2022/11/17 12:25:12;;;;;;;10.73;8.23;;;6.80;99.90;;;;;;5114304;28;20408;-65
2022/11/17 12:27:38;;;;;;;8.65;7.32;;;6.80;99.90;;;;;;5096342;28;20400;-64
2022/11/17 12:30:25;;;;;;;9.38;8.38;;;6.80;99.90;;;;;;5114392;28;20058;-63
2022/11/17 12:32:53;;;;;;;8.98;7.38;;;6.90;99.90;;;;;;5095753;28;20075;-64
2022/11/17 12:35:33;;;;;;;9.25;8.07;;;6.80;99.90;;;;;;5114103;28;20092;-63
2022/11/17 12:38:14;;;;;;;9.80;8.07;;;7.00;99.90;;;;;;5113944;28;20036;-64
2022/11/17 12:40:47;;;;;;;10.40;8.43;;;6.90;99.90;;;;;;5114105;28;20473;-64
2022/11/17 12:43:16;;;;;;;12.10;10.00;;;6.90;99.90;;;;;;5113956;28;20126;-64
2022/11/17 12:45:53;;;;;;;11.57;9.73;;;6.90;99.90;;;;;;5095858;28;20047;-63
2022/11/17 12:48:24;;;;;;;13.07;10.02;;;7.00;99.90;;;;;;5113689;28;20499;-64
2022/11/17 12:51:10;;;;;;;9.40;8.32;;;6.90;99.90;;;;;;5114102;28;20050;-63
2022/11/17 12:54:13;;;;;;;9.80;8.13;;;6.90;99.90;;;;;;5114020;28;20427;-65
2022/11/17 12:56:43;;;;;;;10.38;8.38;;;7.00;99.90;;;;;;5113360;28;20481;-63
2022/11/17 12:59:36;;;;;;;9.30;8.25;;;7.10;99.90;;;;;;5113833;28;20047;-65
2022/11/17 13:02:36;;;;;;;9.45;8.45;;;6.90;99.90;;;;;;5113525;28;20075;-63
2022/11/17 13:05:13;;;;;;;11.88;9.60;;;7.00;99.90;;;;;;5113332;28;20078;-63
2022/11/17 13:07:39;;;;;;;8.60;7.57;;;7.10;99.90;;;;;;5113437;28;20566;-64
2022/11/17 13:10:04;;;;;;;12.32;9.02;;;7.00;99.90;;;;;;5113268;28;20131;-64
2022/11/17 13:12:32;;;;;;;13.35;8.80;;;7.00;99.90;;;;;;5113278;28;20046;-64
2022/11/17 13:15:03;;;;;;;12.68;8.38;;;7.00;99.90;;;;;;5094914;28;20039;-63
2022/11/17 13:17:42;;;;;;;9.38;8.15;;;7.10;99.90;;;;;;5113177;28;20040;-63
2022/11/17 13:20:25;;;;;;;7.50;6.60;;;7.10;99.90;;;;;;5113129;28;20043;-64
2022/11/17 13:23:24;;;;;;;10.90;7.93;;;7.20;99.90;;;;;;5113176;28;20114;-65
2022/11/17 13:26:06;;;;;;;8.98;7.95;;;7.10;99.90;;;;;;5113224;28;20104;-63
2022/11/17 13:28:32;;;;;;;7.85;7.05;;;7.10;99.90;;;;;;5113231;28;20039;-63
2022/11/17 13:30:59;;;;;;;8.07;6.80;;;7.10;99.90;;;;;;5095153;28;20171;-64
2022/11/17 13:33:26;;;;;;;9.18;7.95;;;7.10;99.90;;;;;;5113240;28;20165;-65
2022/11/17 13:36:05;;;;;;;7.22;6.45;;;7.10;99.90;;;;;;5113198;28;20069;-64
2022/11/17 13:38:31;;;;;;;9.23;7.40;;;7.20;99.90;;;;;;5112871;28;20065;-65
2022/11/17 13:40:57;;;;;;;11.07;8.43;;;7.20;99.90;;;;;;5112760;28;20031;-64